sensor_id;sensor_type;location;lat;lon;timestamp;P1;durP1;ratioP1;P2;durP2;ratioP2
19024;SDS011;9645;51.448;6.260;2023-04-24T00:01:15;7.30;;;4.10;;
19024;SDS011;9645;51.448;6.260;2023-04-24T00:03:42;7.85;;;4.72;;
19024;SDS011;9645;51.448;6.260;2023-04-24T00:06:09;6.93;;;4.50;;
19024;SDS011;9645;51.448;6.260;2023-04-24T00:08:36;16.50;;;4.75;;
19024;SDS011;9645;51.448;6.260;2023-04-24T00:11:04;8.15;;;4.25;;
19024;SDS011;9645;51.448;6.260;2023-04-24T00:13:31;9.38;;;5.10;;
19024;SDS011;9645;51.448;6.260;2023-04-24T00:15:58;7.75;;;4.50;;
19024;SDS011;9645;51.448;6.260;2023-04-24T00:18:25;13.88;;;4.50;;
19024;SDS011;9645;51.448;6.260;2023-04-24T00:20:53;9.45;;;5.10;;
19024;SDS011;9645;51.448;6.260;2023-04-24T00:23:20;13.98;;;4.93;;
19024;SDS011;9645;51.448;6.260;2023-04-24T00:25:47;11.68;;;4.32;;
19024;SDS011;9645;51.448;6.260;2023-04-24T00:28:15;8.18;;;4.72;;
19024;SDS011;9645;51.448;6.260;2023-04-24T00:30:42;6.32;;;4.07;;
19024;SDS011;9645;51.448;6.260;2023-04-24T00:33:09;13.60;;;4.30;;
19024;SDS011;9645;51.448;6.260;2023-04-24T00:35:41;11.05;;;4.00;;
19024;SDS011;9645;51.448;6.260;2023-04-24T00:38:08;9.18;;;4.88;;
19024;SDS011;9645;51.448;6.260;2023-04-24T00:40:35;8.65;;;4.85;;
19024;SDS011;9645;51.448;6.260;2023-04-24T00:43:02;17.63;;;5.00;;
19024;SDS011;9645;51.448;6.260;2023-04-24T00:45:31;9.90;;;5.75;;
19024;SDS011;9645;51.448;6.260;2023-04-24T00:47:58;9.70;;;5.47;;
19024;SDS011;9645;51.448;6.260;2023-04-24T00:50:27;9.93;;;5.45;;
19024;SDS011;9645;51.448;6.260;2023-04-24T00:52:55;16.38;;;5.90;;
19024;SDS011;9645;51.448;6.260;2023-04-24T00:55:23;14.90;;;5.93;;
19024;SDS011;9645;51.448;6.260;2023-04-24T00:57:50;14.35;;;5.30;;
19024;SDS011;9645;51.448;6.260;2023-04-24T01:00:18;12.77;;;6.28;;
19024;SDS011;9645;51.448;6.260;2023-04-24T01:02:46;14.57;;;6.13;;
19024;SDS011;9645;51.448;6.260;2023-04-24T01:05:14;14.68;;;5.70;;
19024;SDS011;9645;51.448;6.260;2023-04-24T01:07:43;17.33;;;7.18;;
19024;SDS011;9645;51.448;6.260;2023-04-24T01:10:12;16.75;;;7.18;;
19024;SDS011;9645;51.448;6.260;2023-04-24T01:12:40;15.90;;;6.80;;
19024;SDS011;9645;51.448;6.260;2023-04-24T01:15:08;18.65;;;7.78;;
19024;SDS011;9645;51.448;6.260;2023-04-24T01:17:35;16.33;;;7.97;;
19024;SDS011;9645;51.448;6.260;2023-04-24T01:20:05;15.25;;;7.20;;
19024;SDS011;9645;51.448;6.260;2023-04-24T01:22:35;14.50;;;6.85;;
19024;SDS011;9645;51.448;6.260;2023-04-24T01:25:02;13.85;;;7.10;;
19024;SDS011;9645;51.448;6.260;2023-04-24T01:27:30;20.52;;;8.15;;
19024;SDS011;9645;51.448;6.260;2023-04-24T01:29:57;17.20;;;8.10;;
19024;SDS011;9645;51.448;6.260;2023-04-24T01:32:24;20.52;;;7.75;;
19024;SDS011;9645;51.448;6.260;2023-04-24T01:34:51;16.00;;;7.15;;
19024;SDS011;9645;51.448;6.260;2023-04-24T01:37:19;14.55;;;6.95;;
19024;SDS011;9645;51.448;6.260;2023-04-24T01:39:47;17.50;;;7.35;;
19024;SDS011;9645;51.448;6.260;2023-04-24T01:42:14;14.63;;;7.30;;
19024;SDS011;9645;51.448;6.260;2023-04-24T01:44:41;11.05;;;6.78;;
19024;SDS011;9645;51.448;6.260;2023-04-24T01:47:09;19.85;;;7.90;;
19024;SDS011;9645;51.448;6.260;2023-04-24T01:49:36;18.70;;;8.23;;
19024;SDS011;9645;51.448;6.260;2023-04-24T01:52:04;19.75;;;9.27;;
19024;SDS011;9645;51.448;6.260;2023-04-24T01:54:31;20.58;;;8.73;;
19024;SDS011;9645;51.448;6.260;2023-04-24T01:57:00;18.15;;;8.50;;
19024;SDS011;9645;51.448;6.260;2023-04-24T01:59:27;18.38;;;8.80;;
19024;SDS011;9645;51.448;6.260;2023-04-24T02:01:54;23.73;;;10.13;;
19024;SDS011;9645;51.448;6.260;2023-04-24T02:04:22;18.95;;;9.68;;
19024;SDS011;9645;51.448;6.260;2023-04-24T02:06:49;30.25;;;9.95;;
19024;SDS011;9645;51.448;6.260;2023-04-24T02:09:16;24.05;;;10.30;;
19024;SDS011;9645;51.448;6.260;2023-04-24T02:11:43;23.40;;;9.30;;
19024;SDS011;9645;51.448;6.260;2023-04-24T02:14:12;22.85;;;9.90;;
19024;SDS011;9645;51.448;6.260;2023-04-24T02:16:39;27.90;;;10.73;;
19024;SDS011;9645;51.448;6.260;2023-04-24T02:19:06;25.05;;;10.82;;
19024;SDS011;9645;51.448;6.260;2023-04-24T02:21:33;23.77;;;10.40;;
19024;SDS011;9645;51.448;6.260;2023-04-24T02:24:00;26.73;;;11.07;;
19024;SDS011;9645;51.448;6.260;2023-04-24T02:26:27;22.75;;;10.60;;
19024;SDS011;9645;51.448;6.260;2023-04-24T02:28:56;27.63;;;9.93;;
19024;SDS011;9645;51.448;6.260;2023-04-24T02:31:25;24.98;;;11.00;;
19024;SDS011;9645;51.448;6.260;2023-04-24T02:33:51;31.88;;;10.48;;
19024;SDS011;9645;51.448;6.260;2023-04-24T02:36:19;48.10;;;11.20;;
19024;SDS011;9645;51.448;6.260;2023-04-24T02:38:46;29.88;;;11.35;;
19024;SDS011;9645;51.448;6.260;2023-04-24T02:41:13;34.33;;;11.90;;
19024;SDS011;9645;51.448;6.260;2023-04-24T02:43:40;37.40;;;12.65;;
19024;SDS011;9645;51.448;6.260;2023-04-24T02:46:07;25.15;;;11.50;;
19024;SDS011;9645;51.448;6.260;2023-04-24T02:48:35;28.70;;;11.40;;
19024;SDS011;9645;51.448;6.260;2023-04-24T02:51:02;27.35;;;12.15;;
19024;SDS011;9645;51.448;6.260;2023-04-24T02:53:30;23.73;;;10.93;;
19024;SDS011;9645;51.448;6.260;2023-04-24T02:55:57;28.58;;;12.20;;
19024;SDS011;9645;51.448;6.260;2023-04-24T02:58:24;35.63;;;11.70;;
19024;SDS011;9645;51.448;6.260;2023-04-24T03:00:52;29.20;;;12.55;;
19024;SDS011;9645;51.448;6.260;2023-04-24T03:03:20;28.00;;;11.68;;
19024;SDS011;9645;51.448;6.260;2023-04-24T03:05:48;30.90;;;11.50;;
19024;SDS011;9645;51.448;6.260;2023-04-24T03:08:15;34.53;;;11.82;;
19024;SDS011;9645;51.448;6.260;2023-04-24T03:10:43;28.70;;;10.93;;
19024;SDS011;9645;51.448;6.260;2023-04-24T03:13:10;31.75;;;11.30;;
19024;SDS011;9645;51.448;6.260;2023-04-24T03:15:37;26.90;;;12.05;;
19024;SDS011;9645;51.448;6.260;2023-04-24T03:18:04;26.77;;;10.93;;
19024;SDS011;9645;51.448;6.260;2023-04-24T03:20:31;40.03;;;11.85;;
19024;SDS011;9645;51.448;6.260;2023-04-24T03:23:00;30.02;;;12.38;;
19024;SDS011;9645;51.448;6.260;2023-04-24T03:25:27;25.70;;;11.35;;
19024;SDS011;9645;51.448;6.260;2023-04-24T03:27:54;32.08;;;11.50;;
19024;SDS011;9645;51.448;6.260;2023-04-24T03:30:21;23.67;;;10.18;;
19024;SDS011;9645;51.448;6.260;2023-04-24T03:32:48;28.10;;;11.10;;
19024;SDS011;9645;51.448;6.260;2023-04-24T03:35:15;28.83;;;11.93;;
19024;SDS011;9645;51.448;6.260;2023-04-24T03:37:43;27.10;;;11.25;;
19024;SDS011;9645;51.448;6.260;2023-04-24T03:40:11;22.88;;;10.73;;
19024;SDS011;9645;51.448;6.260;2023-04-24T03:42:38;26.58;;;10.73;;
19024;SDS011;9645;51.448;6.260;2023-04-24T03:45:06;28.15;;;11.35;;
19024;SDS011;9645;51.448;6.260;2023-04-24T03:47:33;20.83;;;10.63;;
19024;SDS011;9645;51.448;6.260;2023-04-24T03:50:01;26.45;;;10.80;;
19024;SDS011;9645;51.448;6.260;2023-04-24T03:52:28;30.80;;;10.15;;
19024;SDS011;9645;51.448;6.260;2023-04-24T03:54:55;22.75;;;10.10;;
19024;SDS011;9645;51.448;6.260;2023-04-24T03:57:23;36.47;;;11.82;;
19024;SDS011;9645;51.448;6.260;2023-04-24T03:59:51;22.70;;;10.05;;
19024;SDS011;9645;51.448;6.260;2023-04-24T04:02:18;27.58;;;11.85;;
19024;SDS011;9645;51.448;6.260;2023-04-24T04:04:45;22.55;;;10.73;;
19024;SDS011;9645;51.448;6.260;2023-04-24T04:07:12;23.67;;;10.43;;
19024;SDS011;9645;51.448;6.260;2023-04-24T04:09:39;21.17;;;11.00;;
19024;SDS011;9645;51.448;6.260;2023-04-24T04:12:07;22.77;;;10.10;;
19024;SDS011;9645;51.448;6.260;2023-04-24T04:14:35;33.58;;;10.52;;
19024;SDS011;9645;51.448;6.260;2023-04-24T04:17:03;23.60;;;10.38;;
19024;SDS011;9645;51.448;6.260;2023-04-24T04:19:30;20.55;;;9.90;;
19024;SDS011;9645;51.448;6.260;2023-04-24T04:21:57;21.73;;;10.10;;
19024;SDS011;9645;51.448;6.260;2023-04-24T04:24:24;22.60;;;9.43;;
19024;SDS011;9645;51.448;6.260;2023-04-24T04:26:51;20.83;;;9.55;;
19024;SDS011;9645;51.448;6.260;2023-04-24T04:29:21;22.30;;;10.05;;
19024;SDS011;9645;51.448;6.260;2023-04-24T04:31:50;20.13;;;9.27;;
19024;SDS011;9645;51.448;6.260;2023-04-24T04:34:17;18.85;;;9.35;;
19024;SDS011;9645;51.448;6.260;2023-04-24T04:36:44;18.77;;;8.80;;
19024;SDS011;9645;51.448;6.260;2023-04-24T04:39:12;11.93;;;7.03;;
19024;SDS011;9645;51.448;6.260;2023-04-24T04:41:40;19.65;;;8.38;;
19024;SDS011;9645;51.448;6.260;2023-04-24T04:44:07;18.77;;;7.80;;
19024;SDS011;9645;51.448;6.260;2023-04-24T04:46:35;15.43;;;8.13;;
19024;SDS011;9645;51.448;6.260;2023-04-24T04:49:04;16.00;;;8.23;;
19024;SDS011;9645;51.448;6.260;2023-04-24T04:51:33;19.58;;;7.95;;
19024;SDS011;9645;51.448;6.260;2023-04-24T04:54:00;16.23;;;7.53;;
19024;SDS011;9645;51.448;6.260;2023-04-24T04:56:27;16.52;;;8.32;;
19024;SDS011;9645;51.448;6.260;2023-04-24T04:58:54;15.75;;;7.45;;
19024;SDS011;9645;51.448;6.260;2023-04-24T05:01:22;14.73;;;7.88;;
19024;SDS011;9645;51.448;6.260;2023-04-24T05:03:50;15.45;;;7.88;;
19024;SDS011;9645;51.448;6.260;2023-04-24T05:06:18;18.10;;;7.65;;
19024;SDS011;9645;51.448;6.260;2023-04-24T05:08:45;15.02;;;7.20;;
19024;SDS011;9645;51.448;6.260;2023-04-24T05:11:13;17.85;;;8.70;;
19024;SDS011;9645;51.448;6.260;2023-04-24T05:13:41;18.45;;;7.80;;
19024;SDS011;9645;51.448;6.260;2023-04-24T05:16:08;16.48;;;8.95;;
19024;SDS011;9645;51.448;6.260;2023-04-24T05:21:11;18.80;;;9.30;;
19024;SDS011;9645;51.448;6.260;2023-04-24T05:23:49;19.63;;;8.23;;
19024;SDS011;9645;51.448;6.260;2023-04-24T05:26:16;19.38;;;9.00;;
19024;SDS011;9645;51.448;6.260;2023-04-24T05:28:44;22.30;;;9.18;;
19024;SDS011;9645;51.448;6.260;2023-04-24T05:31:11;16.92;;;8.65;;
19024;SDS011;9645;51.448;6.260;2023-04-24T05:33:39;19.88;;;9.07;;
19024;SDS011;9645;51.448;6.260;2023-04-24T05:36:09;17.40;;;7.80;;
19024;SDS011;9645;51.448;6.260;2023-04-24T05:38:39;16.13;;;8.35;;
19024;SDS011;9645;51.448;6.260;2023-04-24T05:41:08;16.90;;;8.80;;
19024;SDS011;9645;51.448;6.260;2023-04-24T05:43:35;14.75;;;7.47;;
19024;SDS011;9645;51.448;6.260;2023-04-24T05:46:02;16.73;;;7.68;;
19024;SDS011;9645;51.448;6.260;2023-04-24T05:48:30;19.15;;;7.40;;
19024;SDS011;9645;51.448;6.260;2023-04-24T05:50:57;13.10;;;7.15;;
19024;SDS011;9645;51.448;6.260;2023-04-24T05:53:24;16.02;;;7.75;;
19024;SDS011;9645;51.448;6.260;2023-04-24T05:55:52;21.77;;;7.15;;
19024;SDS011;9645;51.448;6.260;2023-04-24T05:58:20;23.15;;;8.00;;
19024;SDS011;9645;51.448;6.260;2023-04-24T06:00:51;20.20;;;7.45;;
19024;SDS011;9645;51.448;6.260;2023-04-24T06:03:18;17.30;;;7.65;;
19024;SDS011;9645;51.448;6.260;2023-04-24T06:05:49;16.83;;;7.35;;
19024;SDS011;9645;51.448;6.260;2023-04-24T06:08:16;15.20;;;7.13;;
19024;SDS011;9645;51.448;6.260;2023-04-24T06:10:44;12.60;;;6.28;;
19024;SDS011;9645;51.448;6.260;2023-04-24T06:13:11;22.25;;;6.63;;
19024;SDS011;9645;51.448;6.260;2023-04-24T06:15:40;15.50;;;7.00;;
19024;SDS011;9645;51.448;6.260;2023-04-24T06:18:10;17.02;;;6.45;;
19024;SDS011;9645;51.448;6.260;2023-04-24T06:20:42;11.70;;;6.25;;
19024;SDS011;9645;51.448;6.260;2023-04-24T06:23:20;11.65;;;5.63;;
19024;SDS011;9645;51.448;6.260;2023-04-24T06:25:54;10.85;;;5.63;;
19024;SDS011;9645;51.448;6.260;2023-04-24T06:28:45;10.15;;;5.32;;
19024;SDS011;9645;51.448;6.260;2023-04-24T06:34:48;7.13;;;4.10;;
19024;SDS011;9645;51.448;6.260;2023-04-24T06:37:36;7.20;;;3.88;;
19024;SDS011;9645;51.448;6.260;2023-04-24T06:40:20;7.80;;;3.45;;
19024;SDS011;9645;51.448;6.260;2023-04-24T06:43:06;5.32;;;3.47;;
19024;SDS011;9645;51.448;6.260;2023-04-24T06:45:42;4.38;;;2.88;;
19024;SDS011;9645;51.448;6.260;2023-04-24T06:48:19;4.32;;;2.50;;
19024;SDS011;9645;51.448;6.260;2023-04-24T06:51:06;6.05;;;2.45;;
19024;SDS011;9645;51.448;6.260;2023-04-24T06:59:51;3.80;;;1.90;;
19024;SDS011;9645;51.448;6.260;2023-04-24T07:02:19;2.20;;;1.63;;
19024;SDS011;9645;51.448;6.260;2023-04-24T07:04:46;2.95;;;1.80;;
19024;SDS011;9645;51.448;6.260;2023-04-24T07:07:15;8.18;;;2.25;;
19024;SDS011;9645;51.448;6.260;2023-04-24T07:09:42;4.38;;;2.67;;
19024;SDS011;9645;51.448;6.260;2023-04-24T07:12:10;3.55;;;2.45;;
19024;SDS011;9645;51.448;6.260;2023-04-24T07:14:38;4.78;;;2.70;;
19024;SDS011;9645;51.448;6.260;2023-04-24T07:17:05;2.53;;;2.30;;
19024;SDS011;9645;51.448;6.260;2023-04-24T07:19:33;3.17;;;1.80;;
19024;SDS011;9645;51.448;6.260;2023-04-24T07:22:00;3.70;;;1.90;;
19024;SDS011;9645;51.448;6.260;2023-04-24T07:24:29;6.07;;;2.25;;
19024;SDS011;9645;51.448;6.260;2023-04-24T07:26:57;4.80;;;2.30;;
19024;SDS011;9645;51.448;6.260;2023-04-24T07:29:24;7.68;;;2.30;;
19024;SDS011;9645;51.448;6.260;2023-04-24T07:31:51;4.38;;;2.60;;
19024;SDS011;9645;51.448;6.260;2023-04-24T07:34:19;4.45;;;2.00;;
19024;SDS011;9645;51.448;6.260;2023-04-24T07:36:46;2.17;;;1.98;;
19024;SDS011;9645;51.448;6.260;2023-04-24T07:39:13;1.90;;;1.75;;
19024;SDS011;9645;51.448;6.260;2023-04-24T07:41:42;4.75;;;1.80;;
19024;SDS011;9645;51.448;6.260;2023-04-24T07:44:08;2.03;;;1.38;;
19024;SDS011;9645;51.448;6.260;2023-04-24T07:46:36;1.58;;;1.48;;
19024;SDS011;9645;51.448;6.260;2023-04-24T07:49:03;3.60;;;1.33;;
19024;SDS011;9645;51.448;6.260;2023-04-24T07:51:30;3.40;;;1.80;;
19024;SDS011;9645;51.448;6.260;2023-04-24T07:54:03;5.00;;;1.40;;
19024;SDS011;9645;51.448;6.260;2023-04-24T07:56:31;1.35;;;1.02;;
19024;SDS011;9645;51.448;6.260;2023-04-24T07:58:59;0.88;;;0.82;;
19024;SDS011;9645;51.448;6.260;2023-04-24T08:01:27;1.05;;;1.05;;
19024;SDS011;9645;51.448;6.260;2023-04-24T08:03:54;2.15;;;0.88;;
19024;SDS011;9645;51.448;6.260;2023-04-24T08:06:21;1.30;;;1.20;;
19024;SDS011;9645;51.448;6.260;2023-04-24T08:08:49;1.33;;;1.20;;
19024;SDS011;9645;51.448;6.260;2023-04-24T08:11:16;1.40;;;1.17;;
19024;SDS011;9645;51.448;6.260;2023-04-24T08:13:43;1.65;;;1.00;;
19024;SDS011;9645;51.448;6.260;2023-04-24T08:16:12;4.07;;;1.52;;
19024;SDS011;9645;51.448;6.260;2023-04-24T08:18:39;3.05;;;1.90;;
19024;SDS011;9645;51.448;6.260;2023-04-24T08:21:06;7.80;;;2.85;;
19024;SDS011;9645;51.448;6.260;2023-04-24T08:23:33;9.30;;;4.60;;
19024;SDS011;9645;51.448;6.260;2023-04-24T08:26:00;10.15;;;5.63;;
19024;SDS011;9645;51.448;6.260;2023-04-24T08:28:28;21.75;;;7.28;;
19024;SDS011;9645;51.448;6.260;2023-04-24T08:30:55;14.18;;;6.53;;
19024;SDS011;9645;51.448;6.260;2023-04-24T08:33:23;20.83;;;6.60;;
19024;SDS011;9645;51.448;6.260;2023-04-24T08:35:50;16.27;;;7.05;;
19024;SDS011;9645;51.448;6.260;2023-04-24T08:38:18;14.10;;;5.88;;
19024;SDS011;9645;51.448;6.260;2023-04-24T08:40:45;17.98;;;6.80;;
19024;SDS011;9645;51.448;6.260;2023-04-24T08:43:14;12.60;;;6.43;;
19024;SDS011;9645;51.448;6.260;2023-04-24T08:45:42;14.48;;;5.95;;
19024;SDS011;9645;51.448;6.260;2023-04-24T08:48:09;16.90;;;7.22;;
19024;SDS011;9645;51.448;6.260;2023-04-24T08:50:38;17.85;;;6.40;;
19024;SDS011;9645;51.448;6.260;2023-04-24T08:53:07;19.70;;;6.10;;
19024;SDS011;9645;51.448;6.260;2023-04-24T08:55:35;18.50;;;6.72;;
19024;SDS011;9645;51.448;6.260;2023-04-24T08:58:03;18.25;;;6.57;;
19024;SDS011;9645;51.448;6.260;2023-04-24T09:00:30;13.60;;;6.50;;
19024;SDS011;9645;51.448;6.260;2023-04-24T09:02:59;16.58;;;7.28;;
19024;SDS011;9645;51.448;6.260;2023-04-24T09:05:27;15.98;;;6.15;;
19024;SDS011;9645;51.448;6.260;2023-04-24T09:07:56;16.17;;;6.95;;
19024;SDS011;9645;51.448;6.260;2023-04-24T09:10:24;12.55;;;6.50;;
19024;SDS011;9645;51.448;6.260;2023-04-24T09:12:53;12.63;;;6.03;;
19024;SDS011;9645;51.448;6.260;2023-04-24T09:15:21;13.18;;;6.30;;
19024;SDS011;9645;51.448;6.260;2023-04-24T09:17:48;19.90;;;6.25;;
19024;SDS011;9645;51.448;6.260;2023-04-24T09:20:16;19.35;;;6.60;;
19024;SDS011;9645;51.448;6.260;2023-04-24T09:22:43;16.58;;;6.60;;
19024;SDS011;9645;51.448;6.260;2023-04-24T09:25:13;19.58;;;5.88;;
19024;SDS011;9645;51.448;6.260;2023-04-24T09:27:43;24.48;;;6.30;;
19024;SDS011;9645;51.448;6.260;2023-04-24T09:30:11;13.02;;;5.15;;
19024;SDS011;9645;51.448;6.260;2023-04-24T09:32:39;12.32;;;5.45;;
19024;SDS011;9645;51.448;6.260;2023-04-24T09:35:07;16.58;;;5.85;;
19024;SDS011;9645;51.448;6.260;2023-04-24T09:37:36;16.33;;;5.45;;
19024;SDS011;9645;51.448;6.260;2023-04-24T09:40:07;17.15;;;4.65;;
19024;SDS011;9645;51.448;6.260;2023-04-24T09:42:43;27.48;;;5.82;;
19024;SDS011;9645;51.448;6.260;2023-04-24T09:45:12;21.95;;;4.95;;
19024;SDS011;9645;51.448;6.260;2023-04-24T09:47:39;14.70;;;4.75;;
19024;SDS011;9645;51.448;6.260;2023-04-24T09:50:10;16.50;;;3.95;;
19024;SDS011;9645;51.448;6.260;2023-04-24T09:52:42;10.93;;;4.70;;
19024;SDS011;9645;51.448;6.260;2023-04-24T09:55:18;10.57;;;3.92;;
19024;SDS011;9645;51.448;6.260;2023-04-24T09:57:47;21.10;;;4.30;;
19024;SDS011;9645;51.448;6.260;2023-04-24T10:00:17;11.85;;;4.28;;
19024;SDS011;9645;51.448;6.260;2023-04-24T10:02:49;15.73;;;4.93;;
19024;SDS011;9645;51.448;6.260;2023-04-24T10:05:17;19.30;;;5.07;;
19024;SDS011;9645;51.448;6.260;2023-04-24T10:07:44;23.48;;;5.45;;
19024;SDS011;9645;51.448;6.260;2023-04-24T10:10:11;19.73;;;4.85;;
19024;SDS011;9645;51.448;6.260;2023-04-24T10:12:40;16.60;;;4.35;;
19024;SDS011;9645;51.448;6.260;2023-04-24T10:15:09;17.33;;;4.85;;
19024;SDS011;9645;51.448;6.260;2023-04-24T10:17:38;16.00;;;4.70;;
19024;SDS011;9645;51.448;6.260;2023-04-24T10:20:06;12.77;;;4.45;;
19024;SDS011;9645;51.448;6.260;2023-04-24T10:22:34;15.70;;;4.85;;
19024;SDS011;9645;51.448;6.260;2023-04-24T10:25:03;21.35;;;5.40;;
19024;SDS011;9645;51.448;6.260;2023-04-24T10:27:31;12.95;;;4.90;;
19024;SDS011;9645;51.448;6.260;2023-04-24T10:30:00;22.10;;;5.43;;
19024;SDS011;9645;51.448;6.260;2023-04-24T10:32:29;14.07;;;4.38;;
19024;SDS011;9645;51.448;6.260;2023-04-24T10:34:56;18.17;;;4.25;;
19024;SDS011;9645;51.448;6.260;2023-04-24T10:37:23;16.70;;;4.68;;
19024;SDS011;9645;51.448;6.260;2023-04-24T10:39:52;10.32;;;4.25;;
19024;SDS011;9645;51.448;6.260;2023-04-24T10:42:19;11.10;;;3.58;;
19024;SDS011;9645;51.448;6.260;2023-04-24T10:44:48;17.95;;;3.50;;
19024;SDS011;9645;51.448;6.260;2023-04-24T10:47:17;13.25;;;4.35;;
19024;SDS011;9645;51.448;6.260;2023-04-24T10:49:44;10.90;;;3.55;;
19024;SDS011;9645;51.448;6.260;2023-04-24T10:52:11;12.65;;;3.58;;
19024;SDS011;9645;51.448;6.260;2023-04-24T10:54:41;14.10;;;4.50;;
19024;SDS011;9645;51.448;6.260;2023-04-24T10:57:26;28.98;;;4.75;;
19024;SDS011;9645;51.448;6.260;2023-04-24T11:00:15;24.33;;;4.60;;
19024;SDS011;9645;51.448;6.260;2023-04-24T11:02:47;11.30;;;4.20;;
19024;SDS011;9645;51.448;6.260;2023-04-24T11:05:17;13.63;;;3.70;;
19024;SDS011;9645;51.448;6.260;2023-04-24T11:10:38;15.98;;;4.03;;
19024;SDS011;9645;51.448;6.260;2023-04-24T11:13:06;8.68;;;3.50;;
19024;SDS011;9645;51.448;6.260;2023-04-24T11:15:34;5.65;;;3.50;;
19024;SDS011;9645;51.448;6.260;2023-04-24T11:18:03;12.20;;;4.37;;
19024;SDS011;9645;51.448;6.260;2023-04-24T11:20:30;12.90;;;4.43;;
19024;SDS011;9645;51.448;6.260;2023-04-24T11:22:58;15.37;;;4.90;;
19024;SDS011;9645;51.448;6.260;2023-04-24T11:25:31;10.48;;;3.80;;
19024;SDS011;9645;51.448;6.260;2023-04-24T11:28:07;14.48;;;3.83;;
19024;SDS011;9645;51.448;6.260;2023-04-24T11:30:42;6.20;;;3.50;;
19024;SDS011;9645;51.448;6.260;2023-04-24T11:33:10;8.55;;;3.42;;
19024;SDS011;9645;51.448;6.260;2023-04-24T11:35:39;3.75;;;2.30;;
19024;SDS011;9645;51.448;6.260;2023-04-24T11:38:06;8.82;;;2.40;;
19024;SDS011;9645;51.448;6.260;2023-04-24T11:40:33;10.63;;;2.50;;
19024;SDS011;9645;51.448;6.260;2023-04-24T11:43:01;4.47;;;2.38;;
19024;SDS011;9645;51.448;6.260;2023-04-24T11:45:30;6.13;;;2.65;;
19024;SDS011;9645;51.448;6.260;2023-04-24T11:47:57;11.25;;;2.92;;
19024;SDS011;9645;51.448;6.260;2023-04-24T11:50:26;8.48;;;2.60;;
19024;SDS011;9645;51.448;6.260;2023-04-24T11:52:54;5.95;;;1.60;;
19024;SDS011;9645;51.448;6.260;2023-04-24T11:55:25;3.00;;;1.90;;
19024;SDS011;9645;51.448;6.260;2023-04-24T11:57:54;3.90;;;1.85;;
19024;SDS011;9645;51.448;6.260;2023-04-24T12:00:26;3.03;;;1.70;;
19024;SDS011;9645;51.448;6.260;2023-04-24T12:03:03;3.22;;;1.80;;
19024;SDS011;9645;51.448;6.260;2023-04-24T12:05:33;2.58;;;1.45;;
19024;SDS011;9645;51.448;6.260;2023-04-24T12:08:00;8.38;;;1.40;;
19024;SDS011;9645;51.448;6.260;2023-04-24T12:10:28;2.35;;;1.30;;
19024;SDS011;9645;51.448;6.260;2023-04-24T12:12:57;2.78;;;1.40;;
19024;SDS011;9645;51.448;6.260;2023-04-24T12:15:25;5.85;;;1.50;;
19024;SDS011;9645;51.448;6.260;2023-04-24T12:17:53;3.03;;;1.65;;
19024;SDS011;9645;51.448;6.260;2023-04-24T12:20:23;4.43;;;1.30;;
19024;SDS011;9645;51.448;6.260;2023-04-24T12:22:53;2.22;;;1.50;;
19024;SDS011;9645;51.448;6.260;2023-04-24T12:25:21;4.32;;;1.25;;
19024;SDS011;9645;51.448;6.260;2023-04-24T12:27:53;4.05;;;1.45;;
19024;SDS011;9645;51.448;6.260;2023-04-24T12:30:25;3.13;;;1.38;;
19024;SDS011;9645;51.448;6.260;2023-04-24T12:32:53;2.25;;;1.38;;
19024;SDS011;9645;51.448;6.260;2023-04-24T12:35:21;1.30;;;1.20;;
19024;SDS011;9645;51.448;6.260;2023-04-24T12:37:49;1.92;;;1.30;;
19024;SDS011;9645;51.448;6.260;2023-04-24T12:40:19;2.88;;;1.50;;
19024;SDS011;9645;51.448;6.260;2023-04-24T12:42:48;2.70;;;1.60;;
19024;SDS011;9645;51.448;6.260;2023-04-24T12:45:16;3.67;;;1.38;;
19024;SDS011;9645;51.448;6.260;2023-04-24T12:47:44;1.70;;;1.30;;
19024;SDS011;9645;51.448;6.260;2023-04-24T12:50:13;2.78;;;1.40;;
19024;SDS011;9645;51.448;6.260;2023-04-24T12:52:41;3.25;;;1.70;;
19024;SDS011;9645;51.448;6.260;2023-04-24T12:55:08;3.42;;;1.73;;
19024;SDS011;9645;51.448;6.260;2023-04-24T12:57:39;8.63;;;1.75;;
19024;SDS011;9645;51.448;6.260;2023-04-24T13:00:06;2.63;;;1.58;;
19024;SDS011;9645;51.448;6.260;2023-04-24T13:02:35;8.43;;;1.50;;
19024;SDS011;9645;51.448;6.260;2023-04-24T13:05:02;2.53;;;1.40;;
19024;SDS011;9645;51.448;6.260;2023-04-24T13:07:29;1.30;;;1.20;;
19024;SDS011;9645;51.448;6.260;2023-04-24T13:09:56;8.63;;;1.67;;
19024;SDS011;9645;51.448;6.260;2023-04-24T13:12:23;4.55;;;1.40;;
19024;SDS011;9645;51.448;6.260;2023-04-24T13:14:53;5.30;;;2.00;;
19024;SDS011;9645;51.448;6.260;2023-04-24T13:17:21;2.30;;;1.60;;
19024;SDS011;9645;51.448;6.260;2023-04-24T13:19:48;2.58;;;1.35;;
19024;SDS011;9645;51.448;6.260;2023-04-24T13:22:16;1.80;;;1.40;;
19024;SDS011;9645;51.448;6.260;2023-04-24T13:24:44;3.63;;;1.70;;
19024;SDS011;9645;51.448;6.260;2023-04-24T13:27:13;4.13;;;1.80;;
19024;SDS011;9645;51.448;6.260;2023-04-24T13:29:40;3.55;;;2.10;;
19024;SDS011;9645;51.448;6.260;2023-04-24T13:32:09;1.60;;;1.50;;
19024;SDS011;9645;51.448;6.260;2023-04-24T13:34:36;4.85;;;1.52;;
19024;SDS011;9645;51.448;6.260;2023-04-24T13:37:03;1.87;;;1.50;;
19024;SDS011;9645;51.448;6.260;2023-04-24T13:39:31;1.83;;;1.53;;
19024;SDS011;9645;51.448;6.260;2023-04-24T13:41:58;1.80;;;1.33;;
19024;SDS011;9645;51.448;6.260;2023-04-24T13:44:25;3.75;;;1.60;;
19024;SDS011;9645;51.448;6.260;2023-04-24T13:46:53;4.80;;;1.47;;
19024;SDS011;9645;51.448;6.260;2023-04-24T13:49:23;3.10;;;1.53;;
19024;SDS011;9645;51.448;6.260;2023-04-24T13:51:51;2.60;;;1.27;;
19024;SDS011;9645;51.448;6.260;2023-04-24T13:54:20;4.38;;;1.67;;
19024;SDS011;9645;51.448;6.260;2023-04-24T13:56:48;2.60;;;1.23;;
19024;SDS011;9645;51.448;6.260;2023-04-24T13:59:15;3.80;;;1.10;;
19024;SDS011;9645;51.448;6.260;2023-04-24T14:01:43;2.63;;;1.38;;
19024;SDS011;9645;51.448;6.260;2023-04-24T14:04:11;3.38;;;1.30;;
19024;SDS011;9645;51.448;6.260;2023-04-24T14:06:39;5.40;;;1.35;;
19024;SDS011;9645;51.448;6.260;2023-04-24T14:09:06;1.50;;;1.40;;
19024;SDS011;9645;51.448;6.260;2023-04-24T14:11:33;2.50;;;1.55;;
19024;SDS011;9645;51.448;6.260;2023-04-24T14:14:00;3.30;;;1.40;;
19024;SDS011;9645;51.448;6.260;2023-04-24T14:16:28;3.63;;;1.85;;
19024;SDS011;9645;51.448;6.260;2023-04-24T14:18:55;2.05;;;1.65;;
19024;SDS011;9645;51.448;6.260;2023-04-24T14:21:22;4.70;;;1.40;;
19024;SDS011;9645;51.448;6.260;2023-04-24T14:23:51;14.98;;;2.80;;
19024;SDS011;9645;51.448;6.260;2023-04-24T14:26:18;2.65;;;1.92;;
19024;SDS011;9645;51.448;6.260;2023-04-24T14:28:45;6.22;;;1.65;;
19024;SDS011;9645;51.448;6.260;2023-04-24T14:31:12;4.45;;;2.58;;
19024;SDS011;9645;51.448;6.260;2023-04-24T14:33:39;4.38;;;1.90;;
19024;SDS011;9645;51.448;6.260;2023-04-24T14:36:06;3.05;;;1.65;;
19024;SDS011;9645;51.448;6.260;2023-04-24T14:38:33;3.90;;;1.88;;
19024;SDS011;9645;51.448;6.260;2023-04-24T14:41:02;5.88;;;1.85;;
19024;SDS011;9645;51.448;6.260;2023-04-24T14:43:34;4.05;;;1.92;;
19024;SDS011;9645;51.448;6.260;2023-04-24T14:46:01;2.10;;;1.80;;
19024;SDS011;9645;51.448;6.260;2023-04-24T14:48:28;2.10;;;1.90;;
19024;SDS011;9645;51.448;6.260;2023-04-24T14:50:55;2.10;;;1.90;;
19024;SDS011;9645;51.448;6.260;2023-04-24T14:53:22;2.20;;;2.00;;
19024;SDS011;9645;51.448;6.260;2023-04-24T14:55:49;2.92;;;1.90;;
19024;SDS011;9645;51.448;6.260;2023-04-24T14:58:18;3.20;;;2.10;;
19024;SDS011;9645;51.448;6.260;2023-04-24T15:00:45;4.93;;;2.28;;
19024;SDS011;9645;51.448;6.260;2023-04-24T15:03:14;8.77;;;2.20;;
19024;SDS011;9645;51.448;6.260;2023-04-24T15:05:42;10.98;;;2.75;;
19024;SDS011;9645;51.448;6.260;2023-04-24T15:08:10;7.82;;;2.30;;
19024;SDS011;9645;51.448;6.260;2023-04-24T15:10:37;6.70;;;2.17;;
19024;SDS011;9645;51.448;6.260;2023-04-24T15:13:04;3.50;;;1.95;;